Time;durP1;ratioP1;P1;durP2;ratioP2;P2;SDS_P1;SDS_P2;PMS_P1;PMS_P2;Temp;Humidity;BMP_temperature;BMP_pressure;BME280_temperature;BME280_humidity;BME280_pressure;Samples;Min_cycle;Max_cycle;Signal;HPM_P1;HPM_P2
2023/10/05 00:02:09;;;;;;;5.60;1.15;;;14.00;99.90;;;;;;4995370;28;20085;-86
2023/10/05 00:04:42;;;;;;;11.38;1.48;;;14.00;99.90;;;;;;4992332;28;20048;-86
2023/10/05 00:07:10;;;;;;;10.55;1.60;;;14.00;99.90;;;;;;4994124;28;20036;-86
2023/10/05 00:09:36;;;;;;;5.13;1.05;;;14.00;99.90;;;;;;4994421;28;20073;-86
2023/10/05 00:12:05;;;;;;;8.38;1.23;;;13.90;99.90;;;;;;4995417;28;20370;-86
2023/10/05 00:14:30;;;;;;;6.55;1.40;;;13.90;99.90;;;;;;4993495;28;20026;-85
2023/10/05 00:16:56;;;;;;;9.27;1.13;;;13.90;99.90;;;;;;4990236;28;20028;-86
2023/10/05 00:19:27;;;;;;;10.48;0.93;;;13.90;99.90;;;;;;4991132;28;20437;-85
2023/10/05 00:21:55;;;;;;;7.05;1.23;;;13.90;99.90;;;;;;4990817;28;20481;-85
2023/10/05 00:24:36;;;;;;;13.02;2.28;;;13.90;99.90;;;;;;4990755;28;20477;-87
2023/10/05 00:27:04;;;;;;;8.80;1.10;;;13.90;99.90;;;;;;4988238;28;20027;-87
2023/10/05 00:29:39;;;;;;;8.65;1.20;;;13.90;99.90;;;;;;4990835;28;20497;-87
2023/10/05 00:32:08;;;;;;;7.85;1.65;;;13.90;99.90;;;;;;4991909;28;20042;-87
2023/10/05 00:34:34;;;;;;;8.10;1.40;;;13.80;99.90;;;;;;4987577;28;20034;-87
2023/10/05 00:36:59;;;;;;;9.55;1.65;;;13.90;99.90;;;;;;4992128;28;20118;-85
2023/10/05 00:39:26;;;;;;;5.57;1.48;;;13.80;99.90;;;;;;4991499;28;20127;-86
2023/10/05 00:42:10;;;;;;;9.07;0.93;;;13.80;99.90;;;;;;4992837;28;20033;-86
2023/10/05 00:44:39;;;;;;;9.63;1.77;;;13.80;99.90;;;;;;4983319;28;20042;-85
2023/10/05 00:47:05;;;;;;;10.88;1.63;;;13.80;99.90;;;;;;4993241;28;20077;-86
2023/10/05 00:49:59;;;;;;;8.80;1.55;;;13.80;99.90;;;;;;4993558;28;20473;-86
2023/10/05 00:52:25;;;;;;;8.38;0.98;;;13.80;99.90;;;;;;4986963;28;20394;-87
2023/10/05 00:54:54;;;;;;;7.55;1.20;;;13.70;99.90;;;;;;4991583;28;20100;-86
2023/10/05 00:57:23;;;;;;;5.05;1.05;;;13.70;99.90;;;;;;4991134;28;20030;-86
2023/10/05 01:02:25;;;;;;;9.23;1.85;;;13.70;99.90;;;;;;5006796;28;20129;-86
2023/10/05 01:05:00;;;;;;;8.55;1.23;;;13.70;99.90;;;;;;4993342;28;20038;-86
2023/10/05 01:07:42;;;;;;;7.50;1.30;;;13.60;99.90;;;;;;4992484;28;20425;-86
2023/10/05 01:10:44;;;;;;;;;;;13.60;99.90;;;;;;4990632;28;20157;-85
2023/10/05 01:13:00;;;;;;;4.18;0.90;;;13.50;99.90;;;;;;5009596;28;19985;-86
2023/10/05 01:15:33;;;;;;;8.93;1.58;;;13.50;99.90;;;;;;4995731;28;20029;-86
2023/10/05 01:17:59;;;;;;;6.50;1.02;;;13.40;99.90;;;;;;4995435;28;20033;-87
2023/10/05 01:20:26;;;;;;;8.35;1.30;;;13.40;99.90;;;;;;4992917;28;20041;-86
2023/10/05 01:22:58;;;;;;;6.88;1.30;;;13.40;99.90;;;;;;4995126;28;20054;-87
2023/10/05 01:25:27;;;;;;;6.78;1.30;;;13.30;99.90;;;;;;4991776;28;20034;-86
2023/10/05 01:27:52;;;;;;;7.22;1.35;;;13.30;99.90;;;;;;4994804;28;20030;-86
2023/10/05 01:30:19;;;;;;;8.02;1.67;;;13.30;99.90;;;;;;4990366;28;20084;-87
2023/10/05 01:32:46;;;;;;;8.52;1.27;;;13.20;99.90;;;;;;5013123;28;20104;-87
2023/10/05 01:35:13;;;;;;;8.93;1.58;;;13.20;99.90;;;;;;4985071;28;20997;-87
2023/10/05 01:37:40;;;;;;;8.13;1.40;;;13.20;99.90;;;;;;4987288;28;20027;-86
2023/10/05 01:42:46;;;;;;;7.57;1.88;;;13.20;99.90;;;;;;4990516;28;20030;-86
2023/10/05 01:45:24;;;;;;;8.35;1.75;;;13.10;99.90;;;;;;4991861;28;20026;-86
2023/10/05 01:47:50;;;;;;;10.55;1.98;;;13.10;99.90;;;;;;4989112;28;20085;-86
2023/10/05 01:50:19;;;;;;;10.23;2.40;;;13.10;99.90;;;;;;4990008;28;20030;-86
2023/10/05 01:53:07;;;;;;;16.95;2.10;;;13.10;99.90;;;;;;4986681;28;20030;-85
2023/10/05 01:55:34;;;;;;;7.40;1.70;;;13.10;99.90;;;;;;4991843;28;20027;-86
2023/10/05 01:58:00;;;;;;;9.93;2.22;;;13.10;99.90;;;;;;4990782;28;20588;-85
2023/10/05 02:00:25;;;;;;;5.13;1.35;;;13.10;99.90;;;;;;4987398;28;20546;-86
2023/10/05 02:02:52;;;;;;;8.73;1.77;;;13.10;99.90;;;;;;4989901;28;20096;-87
2023/10/05 02:05:21;;;;;;;8.93;2.00;;;13.20;99.90;;;;;;4990643;28;20032;-86
2023/10/05 02:07:49;;;;;;;6.35;1.85;;;13.20;99.90;;;;;;4986909;28;20030;-86
2023/10/05 02:10:19;;;;;;;9.82;2.03;;;13.20;99.90;;;;;;4991426;28;20066;-87
2023/10/05 02:12:46;;;;;;;11.98;2.05;;;13.30;99.90;;;;;;4985936;28;20019;-87
2023/10/05 02:15:13;;;;;;;11.32;2.15;;;13.30;99.90;;;;;;4985566;28;20040;-87
2023/10/05 02:17:42;;;;;;;10.77;2.25;;;13.30;99.90;;;;;;4983482;28;20033;-86
2023/10/05 02:20:25;;;;;;;12.00;2.08;;;13.20;99.90;;;;;;4992039;28;20052;-86
2023/10/05 02:22:51;;;;;;;17.83;2.13;;;13.20;99.90;;;;;;4991882;28;20121;-86
2023/10/05 02:25:22;;;;;;;8.85;2.00;;;13.20;99.90;;;;;;4991308;28;20117;-86
2023/10/05 02:27:47;;;;;;;7.15;2.10;;;13.20;99.90;;;;;;4989737;28;20030;-87
2023/10/05 02:30:14;;;;;;;10.80;2.58;;;13.10;99.90;;;;;;4986583;28;20536;-87
2023/10/05 02:32:40;;;;;;;7.07;2.20;;;13.10;99.90;;;;;;4992949;28;20028;-87
2023/10/05 02:35:19;;;;;;;8.98;2.03;;;13.10;99.90;;;;;;4990936;28;20081;-88
2023/10/05 02:37:51;;;;;;;10.60;2.45;;;13.00;99.90;;;;;;5017071;28;20050;-87
2023/10/05 02:40:17;;;;;;;9.30;2.33;;;13.00;99.90;;;;;;4986995;28;20034;-86
2023/10/05 02:42:43;;;;;;;9.13;2.20;;;13.00;99.90;;;;;;4990117;28;20048;-87
2023/10/05 02:45:11;;;;;;;11.13;2.13;;;13.00;99.90;;;;;;4985393;28;20038;-87
2023/10/05 02:47:36;;;;;;;12.65;1.90;;;13.00;99.90;;;;;;4988218;28;20026;-87
2023/10/05 02:50:05;;;;;;;10.38;2.90;;;13.00;99.90;;;;;;4991168;28;20552;-87
2023/10/05 02:52:33;;;;;;;9.88;2.30;;;13.10;99.90;;;;;;4988008;28;20506;-87
2023/10/05 02:54:58;;;;;;;10.63;2.60;;;13.10;99.90;;;;;;4981895;28;20486;-87
2023/10/05 02:57:25;;;;;;;7.80;2.25;;;13.10;99.90;;;;;;4987049;28;20034;-87
2023/10/05 02:59:51;;;;;;;10.98;2.25;;;13.10;99.90;;;;;;4987053;28;20031;-87
2023/10/05 03:02:18;;;;;;;7.78;2.47;;;13.20;99.90;;;;;;4988404;28;20026;-87
2023/10/05 03:04:44;;;;;;;8.25;1.80;;;13.20;99.90;;;;;;4984791;28;20397;-87
2023/10/05 03:07:17;;;;;;;7.18;2.17;;;13.20;99.90;;;;;;4990737;28;20019;-87
2023/10/05 03:09:43;;;;;;;;;;;13.20;99.90;;;;;;4988695;28;20144;-87
2023/10/05 03:12:11;;;;;;;11.80;2.55;;;13.20;99.90;;;;;;4989481;28;20365;-87
2023/10/05 03:14:36;;;;;;;5.95;1.90;;;13.20;99.90;;;;;;4988326;28;20026;-88
2023/10/05 03:17:11;;;;;;;9.38;2.85;;;13.20;99.90;;;;;;4982102;28;20544;-87
2023/10/05 03:19:36;;;;;;;6.13;2.20;;;13.20;99.90;;;;;;5000924;28;20121;-87
2023/10/05 03:22:05;;;;;;;8.02;2.47;;;13.20;99.90;;;;;;4989682;28;20112;-87
2023/10/05 03:24:35;;;;;;;8.40;2.97;;;13.30;99.90;;;;;;4988582;28;20129;-87
2023/10/05 03:27:03;;;;;;;8.45;2.58;;;13.20;99.90;;;;;;4989253;28;20390;-87
2023/10/05 03:29:30;;;;;;;9.85;3.05;;;13.20;99.90;;;;;;4985509;28;20023;-88
2023/10/05 03:32:13;;;;;;;8.82;1.95;;;13.20;99.90;;;;;;4987568;28;20542;-87
2023/10/05 03:34:46;;;;;;;7.55;1.90;;;13.10;99.90;;;;;;4983418;28;20134;-87
2023/10/05 03:37:15;;;;;;;8.88;2.05;;;13.10;99.90;;;;;;4989438;28;20030;-87
2023/10/05 03:42:25;;;;;;;10.88;2.83;;;13.00;99.90;;;;;;4989911;28;20065;-87
2023/10/05 03:45:01;;;;;;;9.95;2.13;;;13.00;99.90;;;;;;4987714;28;20055;-87
2023/10/05 03:47:27;;;;;;;9.45;2.38;;;12.90;99.90;;;;;;4983133;28;20459;-87
2023/10/05 03:49:55;;;;;;;8.35;2.45;;;12.80;99.90;;;;;;4984064;28;20038;-87
2023/10/05 03:52:22;;;;;;;6.18;2.17;;;12.80;99.90;;;;;;4987546;28;20026;-86
2023/10/05 03:54:47;;;;;;;8.50;2.47;;;12.70;99.90;;;;;;4997522;28;20040;-87
2023/10/05 03:57:13;;;;;;;10.25;2.50;;;12.70;99.90;;;;;;4990954;28;20109;-87
2023/10/05 03:59:39;;;;;;;12.18;2.97;;;12.70;99.90;;;;;;4987886;28;20019;-86
2023/10/05 04:02:05;;;;;;;18.08;2.78;;;12.60;99.90;;;;;;4985369;28;20025;-86
2023/10/05 04:04:31;;;;;;;8.43;2.45;;;12.60;99.90;;;;;;4988829;28;20034;-86
2023/10/05 04:07:00;;;;;;;10.73;2.40;;;12.60;99.90;;;;;;4990160;28;20030;-86
2023/10/05 04:09:28;;;;;;;10.90;2.35;;;12.50;99.90;;;;;;4985074;28;20113;-87
2023/10/05 04:11:57;;;;;;;10.95;2.75;;;12.60;99.90;;;;;;4987155;28;20110;-86
2023/10/05 04:14:23;;;;;;;26.70;3.35;;;12.60;99.90;;;;;;4984688;28;20061;-87
2023/10/05 04:16:49;;;;;;;15.27;3.20;;;12.60;99.90;;;;;;4985043;28;20030;-86
2023/10/05 04:19:18;;;;;;;12.27;2.50;;;12.60;99.90;;;;;;4984401;28;20026;-87
2023/10/05 04:21:45;;;;;;;6.90;2.63;;;12.60;99.90;;;;;;4985687;28;20038;-87
2023/10/05 04:24:14;;;;;;;12.05;2.70;;;12.60;99.90;;;;;;4985457;28;20045;-86
2023/10/05 04:26:44;;;;;;;11.30;3.40;;;12.60;99.90;;;;;;4987216;28;20512;-86
2023/10/05 04:29:14;;;;;;;7.53;2.13;;;12.60;99.90;;;;;;4988209;28;20034;-87
2023/10/05 04:31:40;;;;;;;10.75;2.47;;;12.70;99.90;;;;;;4985403;28;20061;-87
2023/10/05 04:34:11;;;;;;;7.10;1.90;;;12.60;99.90;;;;;;4984988;28;20039;-86
2023/10/05 04:36:38;;;;;;;9.27;2.53;;;12.70;99.90;;;;;;4985614;28;20030;-87
2023/10/05 04:39:06;;;;;;;12.88;3.17;;;12.70;99.90;;;;;;4984839;28;20112;-87
2023/10/05 04:41:39;;;;;;;12.23;2.90;;;12.60;99.90;;;;;;4992880;28;20030;-87
2023/10/05 04:44:11;;;;;;;10.73;2.63;;;12.70;99.90;;;;;;4987667;28;20038;-86
2023/10/05 04:46:36;;;;;;;8.90;2.20;;;12.70;99.90;;;;;;4994857;28;20117;-87
2023/10/05 04:49:08;;;;;;;12.25;2.25;;;12.70;99.90;;;;;;4999536;28;20462;-86
2023/10/05 04:51:37;;;;;;;9.60;2.83;;;12.70;99.90;;;;;;5008308;28;20026;-86
2023/10/05 04:54:03;;;;;;;11.02;3.38;;;12.70;99.90;;;;;;4997828;28;20477;-87
2023/10/05 04:56:35;;;;;;;8.43;2.92;;;12.70;99.90;;;;;;4997116;28;20037;-86
2023/10/05 04:59:18;;;;;;;11.23;2.35;;;12.70;99.90;;;;;;4997009;28;20034;-87
2023/10/05 05:04:27;;;;;;;8.02;2.60;;;12.70;99.90;;;;;;5010870;28;20060;-87
2023/10/05 05:07:00;;;;;;;8.98;2.45;;;12.70;99.90;;;;;;4997377;28;20029;-87
2023/10/05 05:09:29;;;;;;;;;;;12.70;99.90;;;;;;4997032;28;20029;-87
2023/10/05 05:11:56;;;;;;;8.43;2.08;;;12.80;99.90;;;;;;5015899;28;19905;-87
2023/10/05 05:14:23;;;;;;;6.40;2.00;;;12.70;99.90;;;;;;4998121;28;20036;-87
2023/10/05 05:16:51;;;;;;;14.38;2.90;;;12.70;99.90;;;;;;4995861;28;20018;-87
2023/10/05 05:19:17;;;;;;;10.55;2.22;;;12.70;99.90;;;;;;5015515;28;20465;-87
2023/10/05 05:21:43;;;;;;;9.77;2.83;;;12.70;99.90;;;;;;4994759;28;20079;-88
2023/10/05 05:24:11;;;;;;;11.43;2.55;;;12.70;99.90;;;;;;5009061;28;20080;-87
2023/10/05 05:26:37;;;;;;;10.00;2.63;;;12.70;99.90;;;;;;4990371;28;20022;-87
2023/10/05 05:29:03;;;;;;;9.65;2.78;;;12.80;99.90;;;;;;5013700;28;20034;-88
2023/10/05 05:31:30;;;;;;;10.80;3.22;;;12.70;99.90;;;;;;4988124;28;20045;-87
2023/10/05 05:33:56;;;;;;;7.07;2.55;;;12.70;99.90;;;;;;4997055;28;20116;-84
2023/10/05 05:36:21;;;;;;;10.35;2.60;;;12.80;99.90;;;;;;4996327;28;20034;-88
2023/10/05 05:38:50;;;;;;;11.30;3.38;;;12.80;99.90;;;;;;4998019;28;20392;-88
2023/10/05 05:41:16;;;;;;;10.23;2.75;;;12.80;99.90;;;;;;4996271;28;20446;-88
2023/10/05 05:43:42;;;;;;;10.43;3.00;;;12.80;99.90;;;;;;4987529;28;20037;-88
2023/10/05 05:46:14;;;;;;;11.15;3.30;;;12.80;99.90;;;;;;4997458;28;20018;-88
2023/10/05 05:48:43;;;;;;;10.35;2.50;;;12.80;99.90;;;;;;5000214;28;20468;-87
2023/10/05 05:51:17;;;;;;;6.97;2.60;;;12.80;99.90;;;;;;5010220;28;20021;-88
2023/10/05 05:53:46;;;;;;;7.43;2.60;;;12.80;99.90;;;;;;4997734;28;20141;-88
2023/10/05 05:56:18;;;;;;;14.40;2.92;;;12.70;99.90;;;;;;4995043;28;20022;-88
2023/10/05 05:58:47;;;;;;;;;;;12.70;99.90;;;;;;4998337;28;20034;-87
2023/10/05 06:01:17;;;;;;;10.75;3.63;;;12.70;99.90;;;;;;5015422;28;19909;-88
2023/10/05 06:03:48;;;;;;;10.48;2.92;;;12.70;99.90;;;;;;5002292;28;20044;-87
2023/10/05 06:06:19;;;;;;;18.67;3.53;;;12.70;99.90;;;;;;5005367;28;20080;-86
2023/10/05 06:08:44;;;;;;;9.23;3.00;;;12.70;99.90;;;;;;4990630;28;20069;-85
2023/10/05 06:11:12;;;;;;;10.60;3.95;;;12.60;99.90;;;;;;4995453;28;20053;-86
2023/10/05 06:13:37;;;;;;;8.00;2.90;;;12.60;99.90;;;;;;4999272;28;20025;-85
2023/10/05 06:16:09;;;;;;;10.55;2.67;;;12.60;99.90;;;;;;5022826;28;20095;-85
2023/10/05 06:18:35;;;;;;;13.20;2.95;;;12.60;99.90;;;;;;4989697;28;20113;-86
2023/10/05 06:21:02;;;;;;;8.00;2.67;;;12.60;99.90;;;;;;5002697;28;20030;-85
2023/10/05 06:23:28;;;;;;;10.55;3.30;;;12.60;99.90;;;;;;4998343;28;20037;-85
2023/10/05 06:25:55;;;;;;;10.85;3.28;;;12.60;99.90;;;;;;5000456;28;20083;-85
2023/10/05 06:28:22;;;;;;;9.90;3.17;;;12.60;99.90;;;;;;4998692;28;20026;-86
2023/10/05 06:30:49;;;;;;;9.73;2.88;;;12.70;99.90;;;;;;5003242;28;20029;-86
2023/10/05 06:33:15;;;;;;;9.02;3.25;;;12.70;99.90;;;;;;4988762;28;20033;-86
2023/10/05 06:35:40;;;;;;;10.23;2.97;;;12.70;99.90;;;;;;4991855;28;20046;-88
2023/10/05 06:38:06;;;;;;;10.77;3.03;;;12.80;99.90;;;;;;4991072;28;20023;-87
2023/10/05 06:40:33;;;;;;;14.30;4.03;;;12.70;99.90;;;;;;4989889;28;20034;-88
2023/10/05 06:43:00;;;;;;;11.38;2.70;;;12.80;99.90;;;;;;4988006;28;20101;-88
2023/10/05 06:45:25;;;;;;;11.82;3.13;;;12.80;99.90;;;;;;4988988;28;20026;-89
2023/10/05 06:47:51;;;;;;;11.80;3.70;;;12.90;99.90;;;;;;4979435;28;20048;-88
2023/10/05 06:50:17;;;;;;;11.57;3.42;;;12.90;99.90;;;;;;4974057;28;20069;-88
2023/10/05 06:52:44;;;;;;;7.72;2.78;;;12.90;99.90;;;;;;4985508;28;20067;-88
2023/10/05 06:55:14;;;;;;;7.25;2.80;;;13.00;99.90;;;;;;4991092;28;20030;-86
2023/10/05 06:57:43;;;;;;;7.95;2.88;;;13.00;99.90;;;;;;4990413;28;20033;-86
2023/10/05 07:00:11;;;;;;;13.15;3.28;;;13.10;99.90;;;;;;4992051;28;20549;-87
2023/10/05 07:02:41;;;;;;;18.10;2.72;;;13.10;99.90;;;;;;4992576;28;20023;-87
2023/10/05 07:05:08;;;;;;;8.55;3.10;;;13.20;99.90;;;;;;4984726;28;20049;-87
2023/10/05 07:07:35;;;;;;;9.13;2.78;;;13.20;99.90;;;;;;4975833;28;20471;-87
2023/10/05 07:10:03;;;;;;;13.45;3.47;;;13.30;99.90;;;;;;4977486;28;20482;-88
2023/10/05 07:12:35;;;;;;;12.00;2.75;;;13.30;99.90;;;;;;4992497;28;20022;-87
2023/10/05 07:15:07;;;;;;;8.48;2.58;;;13.40;99.90;;;;;;4992881;28;20122;-88
2023/10/05 07:17:33;;;;;;;8.13;3.25;;;13.40;99.90;;;;;;4991985;28;20513;-87
2023/10/05 07:19:59;;;;;;;8.10;2.80;;;13.50;99.90;;;;;;4989441;28;20023;-86
2023/10/05 07:22:25;;;;;;;11.18;3.35;;;13.60;99.90;;;;;;4982153;28;20030;-87
2023/10/05 07:24:50;;;;;;;9.82;3.22;;;13.60;99.90;;;;;;4982665;28;20042;-88
2023/10/05 07:27:17;;;;;;;11.32;3.17;;;13.60;99.90;;;;;;4981622;28;20054;-88
2023/10/05 07:29:46;;;;;;;13.02;3.38;;;13.70;99.90;;;;;;4986050;28;20038;-87
2023/10/05 07:32:12;;;;;;;10.93;3.17;;;13.80;99.90;;;;;;4988964;28;20142;-88
2023/10/05 07:34:39;;;;;;;11.55;2.58;;;13.80;99.90;;;;;;4991455;28;20042;-86
2023/10/05 07:37:06;;;;;;;9.18;3.17;;;13.90;99.90;;;;;;4992278;28;20041;-87
2023/10/05 07:39:31;;;;;;;13.38;3.58;;;13.90;99.90;;;;;;4989190;28;20022;-86
2023/10/05 07:41:59;;;;;;;7.38;2.90;;;13.90;99.90;;;;;;4988071;28;20029;-88
2023/10/05 07:44:27;;;;;;;8.63;3.00;;;14.00;99.90;;;;;;4992267;28;20125;-86
2023/10/05 07:46:53;;;;;;;10.65;2.83;;;14.10;99.90;;;;;;4992422;28;20414;-86
2023/10/05 07:49:18;;;;;;;11.32;3.25;;;14.20;99.90;;;;;;4992011;28;20029;-87
2023/10/05 07:51:44;;;;;;;15.27;3.13;;;14.20;99.90;;;;;;4992566;28;20023;-87
2023/10/05 07:54:10;;;;;;;10.57;2.80;;;14.20;99.90;;;;;;4992127;28;20113;-86
2023/10/05 07:56:35;;;;;;;9.95;3.30;;;14.20;99.90;;;;;;4992203;28;20061;-86
2023/10/05 07:59:01;;;;;;;14.98;2.83;;;14.30;99.90;;;;;;4992448;28;20114;-86
2023/10/05 08:01:26;;;;;;;10.25;2.90;;;14.40;99.90;;;;;;4991820;28;20106;-86
2023/10/05 08:03:52;;;;;;;10.10;3.20;;;14.50;99.90;;;;;;4991904;28;20128;-86
2023/10/05 08:06:18;;;;;;;9.02;2.35;;;14.50;99.90;;;;;;4988629;28;20513;-86
2023/10/05 08:08:44;;;;;;;8.77;3.05;;;14.60;99.90;;;;;;4974176;28;20030;-86
2023/10/05 08:11:15;;;;;;;10.48;2.90;;;14.70;99.90;;;;;;4991724;28;20053;-85
2023/10/05 08:13:41;;;;;;;8.85;3.10;;;14.70;99.90;;;;;;4983113;28;20101;-85
2023/10/05 08:16:10;;;;;;;9.82;3.22;;;14.80;99.90;;;;;;4972353;28;20054;-85
2023/10/05 08:18:36;;;;;;;9.93;2.90;;;14.90;99.90;;;;;;4990772;28;20026;-86
2023/10/05 08:21:02;;;;;;;13.90;2.70;;;15.00;99.90;;;;;;4996614;28;20026;-87
2023/10/05 08:23:28;;;;;;;15.13;4.07;;;15.10;99.90;;;;;;4995910;28;20057;-86
2023/10/05 08:25:57;;;;;;;8.00;2.47;;;15.20;99.90;;;;;;4993126;28;20070;-87
2023/10/05 08:28:24;;;;;;;11.43;3.35;;;15.30;99.90;;;;;;4976465;28;20023;-87
2023/10/05 08:31:05;;;;;;;12.27;2.55;;;15.40;99.90;;;;;;4977763;28;20034;-88
2023/10/05 08:33:34;;;;;;;5.65;2.03;;;15.50;99.90;;;;;;4994546;28;20050;-87
2023/10/05 08:36:06;;;;;;;7.50;2.25;;;15.70;99.90;;;;;;4995663;28;20137;-87
2023/10/05 08:38:34;;;;;;;9.63;2.38;;;15.80;99.90;;;;;;4996886;28;20386;-87
2023/10/05 08:41:03;;;;;;;6.18;2.85;;;15.90;99.90;;;;;;4990609;28;20078;-87
2023/10/05 08:43:30;;;;;;;10.23;1.92;;;15.90;99.90;;;;;;4995499;28;20045;-86
2023/10/05 08:46:03;;;;;;;5.93;1.67;;;15.90;99.90;;;;;;4995804;28;20025;-87
2023/10/05 08:48:34;;;;;;;7.28;1.77;;;16.00;99.90;;;;;;4994894;28;20394;-87
2023/10/05 08:51:15;;;;;;;8.13;1.98;;;15.90;99.90;;;;;;4995656;28;20550;-87
2023/10/05 08:53:49;;;;;;;10.82;2.45;;;16.00;99.90;;;;;;4995536;28;20034;-87
2023/10/05 08:56:16;;;;;;;6.55;1.75;;;16.00;99.90;;;;;;4996268;28;20459;-86
2023/10/05 08:58:45;;;;;;;7.60;2.05;;;16.10;99.90;;;;;;4999195;28;20053;-86
2023/10/05 09:01:33;;;;;;;9.57;1.63;;;16.10;99.90;;;;;;4993888;28;20033;-86
2023/10/05 09:04:11;;;;;;;9.20;2.03;;;16.20;99.90;;;;;;4995241;28;20125;-87
2023/10/05 09:06:55;;;;;;;8.57;1.92;;;16.30;99.90;;;;;;4993181;28;20026;-87
2023/10/05 09:09:35;;;;;;;6.45;1.73;;;16.40;99.90;;;;;;4994858;28;20038;-86
2023/10/05 09:12:32;;;;;;;9.88;1.83;;;16.40;99.90;;;;;;4995135;28;20489;-86
2023/10/05 09:18:05;;;;;;;6.32;1.63;;;16.60;99.90;;;;;;4985803;28;20026;-86
2023/10/05 09:20:37;;;;;;;7.93;1.58;;;16.60;99.90;;;;;;4995179;28;20073;-86
2023/10/05 09:23:07;;;;;;;10.57;1.63;;;16.70;99.90;;;;;;4994607;28;20112;-87
2023/10/05 09:25:34;;;;;;;10.95;1.52;;;16.70;99.90;;;;;;4995265;28;20031;-86
2023/10/05 09:28:12;;;;;;;8.60;2.20;;;16.70;99.90;;;;;;4994635;28;20084;-86
2023/10/05 09:30:51;;;;;;;8.48;1.45;;;16.80;99.90;;;;;;4994800;28;20028;-87
2023/10/05 09:33:18;;;;;;;9.38;1.38;;;16.70;99.90;;;;;;4995438;28;20030;-87
2023/10/05 09:35:46;;;;;;;9.15;1.52;;;16.80;99.90;;;;;;4994624;28;20050;-87
2023/10/05 09:38:14;;;;;;;9.85;1.90;;;16.80;99.90;;;;;;4988380;28;20113;-86
2023/10/05 09:40:40;;;;;;;5.60;1.52;;;16.90;99.90;;;;;;4991777;28;20031;-86
2023/10/05 09:43:10;;;;;;;6.20;1.25;;;16.90;99.90;;;;;;4994066;28;20441;-87
2023/10/05 09:45:38;;;;;;;8.52;1.38;;;16.90;99.90;;;;;;4993973;28;20098;-86
2023/10/05 09:48:07;;;;;;;10.30;2.28;;;16.90;99.90;;;;;;4994026;28;20049;-86
2023/10/05 09:50:33;;;;;;;8.10;1.58;;;17.00;99.90;;;;;;4994044;28;20027;-87
2023/10/05 09:52:59;;;;;;;10.77;1.40;;;17.00;99.90;;;;;;4994062;28;20030;-85
2023/10/05 09:55:25;;;;;;;9.20;1.30;;;17.00;99.90;;;;;;4993955;28;20034;-85
2023/10/05 09:57:51;;;;;;;8.82;1.27;;;17.00;99.90;;;;;;4988288;28;20090;-85
2023/10/05 10:00:29;;;;;;;6.13;1.90;;;17.00;99.90;;;;;;4982303;28;20090;-86
2023/10/05 10:02:56;;;;;;;9.95;1.77;;;17.00;99.90;;;;;;4993587;28;20022;-85
2023/10/05 10:05:30;;;;;;;13.10;2.10;;;17.00;99.90;;;;;;4993117;28;20045;-85
2023/10/05 10:08:09;;;;;;;8.40;1.90;;;17.00;99.90;;;;;;4996345;28;20038;-87
2023/10/05 10:10:37;;;;;;;9.48;1.20;;;17.10;99.90;;;;;;4996060;28;20030;-86
2023/10/05 10:13:11;;;;;;;8.10;1.40;;;17.10;99.90;;;;;;4996073;28;20018;-85
2023/10/05 10:15:46;;;;;;;6.65;1.40;;;17.20;99.90;;;;;;4992788;28;20546;-85
2023/10/05 10:18:15;;;;;;;7.43;1.35;;;17.40;99.90;;;;;;4988608;28;20026;-86
2023/10/05 10:20:51;;;;;;;8.02;1.17;;;17.40;99.90;;;;;;4982777;28;20437;-85
2023/10/05 10:23:22;;;;;;;14.00;1.65;;;17.50;99.90;;;;;;4992858;28;20042;-86
2023/10/05 10:25:50;;;;;;;9.30;1.33;;;17.50;99.90;;;;;;4990233;28;20118;-86
2023/10/05 10:28:20;;;;;;;15.68;1.63;;;17.40;99.90;;;;;;4974069;28;20026;-86
2023/10/05 10:30:47;;;;;;;7.90;1.52;;;17.40;99.90;;;;;;4983864;28;20022;-86
2023/10/05 10:33:35;;;;;;;7.15;1.10;;;17.40;99.90;;;;;;4993379;28;20027;-86
2023/10/05 10:36:03;;;;;;;7.53;1.55;;;17.50;99.90;;;;;;4992393;28;20141;-88
2023/10/05 10:38:29;;;;;;;6.53;1.42;;;17.60;99.90;;;;;;4993833;28;20019;-86
2023/10/05 10:41:07;;;;;;;6.75;1.55;;;17.60;99.90;;;;;;4991085;28;20036;-86
2023/10/05 10:43:33;;;;;;;8.13;1.23;;;17.70;99.90;;;;;;4993466;28;20564;-86
2023/10/05 10:46:00;;;;;;;8.57;1.20;;;17.70;99.90;;;;;;4995016;28;20562;-86
2023/10/05 10:48:29;;;;;;;13.27;2.22;;;17.80;99.90;;;;;;4994231;28;20509;-86
2023/10/05 10:50:59;;;;;;;11.00;1.85;;;17.80;99.90;;;;;;4992093;28;20027;-86
2023/10/05 10:53:30;;;;;;;10.13;2.47;;;17.80;99.90;;;;;;4991401;28;20494;-86
2023/10/05 10:56:03;;;;;;;13.65;1.70;;;17.80;99.90;;;;;;4994879;28;20030;-85
2023/10/05 10:58:30;;;;;;;9.77;1.50;;;17.80;99.90;;;;;;4994541;28;20027;-88
2023/10/05 11:00:59;;;;;;;12.27;1.77;;;17.80;99.90;;;;;;4994556;28;20030;-87
2023/10/05 11:03:26;;;;;;;7.72;1.00;;;17.80;99.90;;;;;;4989743;28;20045;-87
2023/10/05 11:05:54;;;;;;;6.65;1.20;;;17.80;99.90;;;;;;4990622;28;20030;-86
2023/10/05 11:08:20;;;;;;;8.93;1.63;;;17.70;99.90;;;;;;4984213;28;20019;-87
2023/10/05 11:11:09;;;;;;;10.43;1.33;;;17.80;99.90;;;;;;4997379;28;20133;-86
2023/10/05 11:13:49;;;;;;;5.53;1.40;;;17.90;99.90;;;;;;4998070;28;20032;-85
2023/10/05 11:16:19;;;;;;;11.10;1.80;;;18.00;99.90;;;;;;4994866;28;20129;-85
2023/10/05 11:19:00;;;;;;;9.75;1.30;;;18.10;99.90;;;;;;4997171;28;20023;-87
2023/10/05 11:21:27;;;;;;;6.80;1.23;;;18.20;99.90;;;;;;4989370;28;20113;-85
2023/10/05 11:23:57;;;;;;;6.70;1.20;;;18.20;99.90;;;;;;4994576;28;20113;-86
2023/10/05 11:28:56;;;;;;;7.85;1.42;;;18.50;99.90;;;;;;4994820;28;20033;-85
2023/10/05 11:31:23;;;;;;;7.80;1.60;;;18.60;99.90;;;;;;4991406;28;20037;-87
2023/10/05 11:33:53;;;;;;;3.70;1.42;;;18.60;99.90;;;;;;5001726;28;20037;-87
2023/10/05 11:36:27;;;;;;;8.85;1.60;;;18.60;99.90;;;;;;4996125;28;20046;-86
2023/10/05 11:38:57;;;;;;;9.57;1.42;;;18.70;99.90;;;;;;4998581;28;20030;-88
2023/10/05 11:41:25;;;;;;;6.40;1.95;;;18.70;99.90;;;;;;5000779;28;20534;-86
2023/10/05 11:43:55;;;;;;;7.50;1.00;;;18.70;99.90;;;;;;4999959;28;20413;-85
2023/10/05 11:46:24;;;;;;;8.82;0.98;;;18.70;99.90;;;;;;4994423;28;20033;-86
2023/10/05 11:48:54;;;;;;;7.80;1.00;;;18.80;99.90;;;;;;4995682;28;20026;-86
2023/10/05 11:51:21;;;;;;;6.78;1.02;;;18.80;99.90;;;;;;4975682;28;20037;-86
2023/10/05 11:53:47;;;;;;;8.82;1.50;;;18.90;99.90;;;;;;4989613;28;20116;-87
2023/10/05 11:56:17;;;;;;;8.95;1.05;;;19.00;99.90;;;;;;4992143;28;20018;-87
2023/10/05 11:58:44;;;;;;;7.82;1.27;;;19.10;99.90;;;;;;4991781;28;20418;-88
2023/10/05 12:01:10;;;;;;;6.38;1.10;;;19.30;99.90;;;;;;4992703;28;20022;-86
2023/10/05 12:03:43;;;;;;;9.10;1.00;;;19.40;99.90;;;;;;4981912;28;20495;-86
2023/10/05 12:06:12;;;;;;;6.75;1.00;;;19.40;99.90;;;;;;4988387;28;20046;-86
2023/10/05 12:08:38;;;;;;;8.55;1.02;;;19.40;99.90;;;;;;4984237;28;20394;-86
2023/10/05 12:11:04;;;;;;;10.43;0.90;;;19.40;99.90;;;;;;4991870;28;20026;-86
2023/10/05 12:13:30;;;;;;;6.50;0.80;;;19.30;99.90;;;;;;4988281;28;20425;-86
2023/10/05 12:15:58;;;;;;;7.93;1.13;;;19.40;99.90;;;;;;4984041;28;20129;-86
2023/10/05 12:18:23;;;;;;;3.88;0.90;;;19.30;99.90;;;;;;4992319;28;20037;-87
2023/10/05 12:20:49;;;;;;;9.10;1.48;;;19.20;99.90;;;;;;4987401;28;20027;-87
2023/10/05 12:23:15;;;;;;;6.93;1.63;;;19.10;99.90;;;;;;4987308;28;20034;-86
2023/10/05 12:25:45;;;;;;;11.90;1.58;;;19.20;99.90;;;;;;4980094;28;20026;-86
2023/10/05 12:28:11;;;;;;;9.20;1.10;;;19.20;99.90;;;;;;4991564;28;20092;-87
2023/10/05 12:30:39;;;;;;;5.72;0.82;;;19.20;99.90;;;;;;4990303;28;20402;-86
2023/10/05 12:33:06;;;;;;;8.98;1.05;;;19.20;99.90;;;;;;4990104;28;20022;-85
2023/10/05 12:35:32;;;;;;;8.25;1.00;;;19.10;99.90;;;;;;5005104;28;20077;-87
2023/10/05 12:37:58;;;;;;;4.82;1.23;;;19.20;99.90;;;;;;4994570;28;20053;-87
2023/10/05 12:40:33;;;;;;;4.78;0.88;;;19.20;99.90;;;;;;4994849;28;20030;-86
2023/10/05 12:42:59;;;;;;;6.82;1.13;;;19.20;99.90;;;;;;4988799;28;20036;-88
2023/10/05 12:45:25;;;;;;;4.28;0.88;;;19.30;99.90;;;;;;4992471;28;20050;-86
2023/10/05 12:47:55;;;;;;;6.78;0.80;;;19.20;99.90;;;;;;4994109;28;20092;-88
2023/10/05 12:50:22;;;;;;;4.80;1.25;;;19.20;99.90;;;;;;4984490;28;20441;-88
2023/10/05 12:52:51;;;;;;;8.93;0.80;;;19.20;99.90;;;;;;4975354;28;20031;-86
2023/10/05 12:55:29;;;;;;;5.88;0.82;;;19.30;99.90;;;;;;4981966;28;20076;-87
2023/10/05 12:57:55;;;;;;;6.50;0.90;;;19.30;99.90;;;;;;4992735;28;20489;-85
2023/10/05 13:00:27;;;;;;;5.18;0.80;;;19.40;99.90;;;;;;4990769;28;20057;-87
2023/10/05 13:02:53;;;;;;;7.60;1.02;;;19.50;99.90;;;;;;4993959;28;20034;-86
2023/10/05 13:05:24;;;;;;;7.68;0.93;;;19.60;99.90;;;;;;4992478;28;20088;-86
2023/10/05 13:07:50;;;;;;;9.88;1.50;;;19.50;99.90;;;;;;4996781;28;20088;-86
2023/10/05 13:10:26;;;;;;;4.85;0.70;;;19.50;99.90;;;;;;4996999;28;20034;-86
2023/10/05 13:12:53;;;;;;;7.07;1.10;;;19.50;99.90;;;;;;4997601;28;20030;-85